sensor_id;sensor_type;location;lat;lon;timestamp;temperature;humidity
77985;DHT22;67177;47.240;-1.546;2023-05-02T05:22:52;11.50;68.30
77985;DHT22;67177;47.240;-1.546;2023-05-02T05:25:18;11.50;68.30
77985;DHT22;67177;47.240;-1.546;2023-05-02T05:27:44;11.50;68.40
77985;DHT22;67177;47.240;-1.546;2023-05-02T05:30:10;11.50;68.50
77985;DHT22;67177;47.240;-1.546;2023-05-02T05:32:35;11.50;68.70
77985;DHT22;67177;47.240;-1.546;2023-05-02T05:35:10;11.50;68.80
77985;DHT22;67177;47.240;-1.546;2023-05-02T05:37:36;11.50;68.90
77985;DHT22;67177;47.240;-1.546;2023-05-02T05:40:05;11.50;69.10
77985;DHT22;67177;47.240;-1.546;2023-05-02T05:42:31;11.50;69.20
77985;DHT22;67177;47.240;-1.546;2023-05-02T05:44:57;11.60;69.20
77985;DHT22;67177;47.240;-1.546;2023-05-02T05:47:22;11.70;69.20
77985;DHT22;67177;47.240;-1.546;2023-05-02T05:49:52;11.80;69.10
77985;DHT22;67177;47.240;-1.546;2023-05-02T05:52:18;11.80;69.20
77985;DHT22;67177;47.240;-1.546;2023-05-02T05:54:44;11.90;69.40
77985;DHT22;67177;47.240;-1.546;2023-05-02T05:57:09;11.90;69.30
77985;DHT22;67177;47.240;-1.546;2023-05-02T05:59:35;11.90;69.40
77985;DHT22;67177;47.240;-1.546;2023-05-02T06:02:01;11.90;69.60
77985;DHT22;67177;47.240;-1.546;2023-05-02T06:04:26;11.90;69.60
77985;DHT22;67177;47.240;-1.546;2023-05-02T06:06:52;12.00;69.70
77985;DHT22;67177;47.240;-1.546;2023-05-02T06:09:18;12.00;69.60
77985;DHT22;67177;47.240;-1.546;2023-05-02T06:11:44;12.10;69.70
77985;DHT22;67177;47.240;-1.546;2023-05-02T06:14:10;12.20;69.60
77985;DHT22;67177;47.240;-1.546;2023-05-02T06:16:35;12.20;69.60
77985;DHT22;67177;47.240;-1.546;2023-05-02T06:19:01;12.20;69.70
77985;DHT22;67177;47.240;-1.546;2023-05-02T06:21:27;12.30;69.70
77985;DHT22;67177;47.240;-1.546;2023-05-02T06:23:52;12.30;69.70
77985;DHT22;67177;47.240;-1.546;2023-05-02T06:26:18;12.40;69.80
77985;DHT22;67177;47.240;-1.546;2023-05-02T06:28:44;12.40;69.70
77985;DHT22;67177;47.240;-1.546;2023-05-02T06:31:10;12.40;69.80
77985;DHT22;67177;47.240;-1.546;2023-05-02T06:33:36;12.50;69.70
77985;DHT22;67177;47.240;-1.546;2023-05-02T06:36:01;12.50;69.70
77985;DHT22;67177;47.240;-1.546;2023-05-02T06:38:27;12.50;69.70
77985;DHT22;67177;47.240;-1.546;2023-05-02T06:40:53;12.50;69.70
77985;DHT22;67177;47.240;-1.546;2023-05-02T06:43:18;12.60;69.80
77985;DHT22;67177;47.240;-1.546;2023-05-02T06:45:44;12.70;69.50
77985;DHT22;67177;47.240;-1.546;2023-05-02T06:48:10;12.70;69.60
77985;DHT22;67177;47.240;-1.546;2023-05-02T06:50:36;12.80;69.50
77985;DHT22;67177;47.240;-1.546;2023-05-02T06:53:03;12.90;69.60
77985;DHT22;67177;47.240;-1.546;2023-05-02T06:55:29;13.10;69.50
77985;DHT22;67177;47.240;-1.546;2023-05-02T06:57:55;13.20;69.50
77985;DHT22;67177;47.240;-1.546;2023-05-02T07:00:20;13.20;69.40
77985;DHT22;67177;47.240;-1.546;2023-05-02T07:02:47;13.40;69.30
77985;DHT22;67177;47.240;-1.546;2023-05-02T07:05:14;13.50;69.10
77985;DHT22;67177;47.240;-1.546;2023-05-02T07:07:43;13.60;69.10
77985;DHT22;67177;47.240;-1.546;2023-05-02T07:10:10;13.70;68.90
77985;DHT22;67177;47.240;-1.546;2023-05-02T07:12:36;13.80;68.80
77985;DHT22;67177;47.240;-1.546;2023-05-02T07:15:04;13.90;68.70
77985;DHT22;67177;47.240;-1.546;2023-05-02T07:17:30;14.00;68.60
77985;DHT22;67177;47.240;-1.546;2023-05-02T07:19:56;14.10;68.10
77985;DHT22;67177;47.240;-1.546;2023-05-02T07:22:22;14.10;67.90
77985;DHT22;67177;47.240;-1.546;2023-05-02T07:24:48;14.20;67.30
77985;DHT22;67177;47.240;-1.546;2023-05-02T07:27:21;14.20;67.30
77985;DHT22;67177;47.240;-1.546;2023-05-02T07:29:47;14.20;67.50
77985;DHT22;67177;47.240;-1.546;2023-05-02T07:32:12;14.30;67.60
77985;DHT22;67177;47.240;-1.546;2023-05-02T07:34:38;14.30;67.40
77985;DHT22;67177;47.240;-1.546;2023-05-02T07:37:03;14.30;67.60
77985;DHT22;67177;47.240;-1.546;2023-05-02T07:39:31;14.30;67.60
77985;DHT22;67177;47.240;-1.546;2023-05-02T07:41:57;14.30;67.70
77985;DHT22;67177;47.240;-1.546;2023-05-02T07:44:22;14.40;67.70
77985;DHT22;67177;47.240;-1.546;2023-05-02T07:46:48;14.40;67.80
77985;DHT22;67177;47.240;-1.546;2023-05-02T07:49:14;14.50;67.80
77985;DHT22;67177;47.240;-1.546;2023-05-02T07:51:40;14.50;67.10
77985;DHT22;67177;47.240;-1.546;2023-05-02T07:54:15;14.60;66.90
77985;DHT22;67177;47.240;-1.546;2023-05-02T07:56:41;14.70;66.80
77985;DHT22;67177;47.240;-1.546;2023-05-02T07:59:07;14.80;66.70
77985;DHT22;67177;47.240;-1.546;2023-05-02T08:01:34;14.90;66.80
77985;DHT22;67177;47.240;-1.546;2023-05-02T08:04:00;15.00;66.70
77985;DHT22;67177;47.240;-1.546;2023-05-02T08:06:25;15.10;66.20
77985;DHT22;67177;47.240;-1.546;2023-05-02T08:08:51;15.30;66.00
77985;DHT22;67177;47.240;-1.546;2023-05-02T08:11:16;15.40;65.70
77985;DHT22;67177;47.240;-1.546;2023-05-02T08:13:42;15.50;65.40
77985;DHT22;67177;47.240;-1.546;2023-05-02T08:16:08;15.70;64.80
77985;DHT22;67177;47.240;-1.546;2023-05-02T08:18:33;15.90;64.60
77985;DHT22;67177;47.240;-1.546;2023-05-02T08:20:59;16.10;64.10
77985;DHT22;67177;47.240;-1.546;2023-05-02T08:23:25;16.10;63.70
77985;DHT22;67177;47.240;-1.546;2023-05-02T08:25:50;16.20;63.60
77985;DHT22;67177;47.240;-1.546;2023-05-02T08:28:16;16.20;63.50
77985;DHT22;67177;47.240;-1.546;2023-05-02T08:30:43;16.20;63.10
77985;DHT22;67177;47.240;-1.546;2023-05-02T08:33:09;16.10;63.50
77985;DHT22;67177;47.240;-1.546;2023-05-02T08:35:35;16.00;63.70
77985;DHT22;67177;47.240;-1.546;2023-05-02T08:38:01;16.00;63.90
77985;DHT22;67177;47.240;-1.546;2023-05-02T08:40:26;15.90;64.20
77985;DHT22;67177;47.240;-1.546;2023-05-02T08:42:53;15.80;64.60
77985;DHT22;67177;47.240;-1.546;2023-05-02T08:45:19;15.70;64.60
77985;DHT22;67177;47.240;-1.546;2023-05-02T08:47:47;15.50;64.80
77985;DHT22;67177;47.240;-1.546;2023-05-02T08:50:14;15.50;65.10
77985;DHT22;67177;47.240;-1.546;2023-05-02T08:52:43;15.40;65.40
77985;DHT22;67177;47.240;-1.546;2023-05-02T08:55:11;15.40;65.60
77985;DHT22;67177;47.240;-1.546;2023-05-02T08:57:37;15.40;65.70
77985;DHT22;67177;47.240;-1.546;2023-05-02T09:00:04;15.40;65.80
77985;DHT22;67177;47.240;-1.546;2023-05-02T09:03:20;15.40;65.90
77985;DHT22;67177;47.240;-1.546;2023-05-02T09:05:25;15.40;66.20
77985;DHT22;67177;47.240;-1.546;2023-05-02T09:07:51;15.40;66.10
77985;DHT22;67177;47.240;-1.546;2023-05-02T09:10:17;15.50;66.30
77985;DHT22;67177;47.240;-1.546;2023-05-02T09:12:43;15.50;66.50
77985;DHT22;67177;47.240;-1.546;2023-05-02T09:15:10;15.50;66.60
77985;DHT22;67177;47.240;-1.546;2023-05-02T09:17:44;15.50;66.50
77985;DHT22;67177;47.240;-1.546;2023-05-02T09:20:13;15.60;66.30
77985;DHT22;67177;47.240;-1.546;2023-05-02T09:22:50;15.60;65.80
77985;DHT22;67177;47.240;-1.546;2023-05-02T09:25:16;15.70;65.60
77985;DHT22;67177;47.240;-1.546;2023-05-02T09:27:52;15.70;65.40
77985;DHT22;67177;47.240;-1.546;2023-05-02T09:30:20;15.80;65.20
77985;DHT22;67177;47.240;-1.546;2023-05-02T09:32:47;15.80;65.20
77985;DHT22;67177;47.240;-1.546;2023-05-02T09:35:16;15.80;65.00
77985;DHT22;67177;47.240;-1.546;2023-05-02T09:37:56;15.90;64.80
77985;DHT22;67177;47.240;-1.546;2023-05-02T09:40:22;15.90;64.90
77985;DHT22;67177;47.240;-1.546;2023-05-02T09:42:49;15.90;64.80
77985;DHT22;67177;47.240;-1.546;2023-05-02T09:45:22;16.00;64.40
77985;DHT22;67177;47.240;-1.546;2023-05-02T09:47:49;16.00;64.20
77985;DHT22;67177;47.240;-1.546;2023-05-02T09:50:36;16.20;63.90
77985;DHT22;67177;47.240;-1.546;2023-05-02T09:53:07;16.50;63.80
77985;DHT22;67177;47.240;-1.546;2023-05-02T09:55:34;16.50;63.80
77985;DHT22;67177;47.240;-1.546;2023-05-02T09:58:00;16.60;63.90
77985;DHT22;67177;47.240;-1.546;2023-05-02T10:00:43;16.80;63.40
77985;DHT22;67177;47.240;-1.546;2023-05-02T10:03:09;16.80;63.70
77985;DHT22;67177;47.240;-1.546;2023-05-02T10:05:38;16.80;63.30
77985;DHT22;67177;47.240;-1.546;2023-05-02T10:08:05;16.90;62.60
77985;DHT22;67177;47.240;-1.546;2023-05-02T10:10:35;16.90;61.70
77985;DHT22;67177;47.240;-1.546;2023-05-02T10:13:03;16.90;61.60
77985;DHT22;67177;47.240;-1.546;2023-05-02T10:15:30;16.90;61.60
77985;DHT22;67177;47.240;-1.546;2023-05-02T10:17:58;16.80;61.10
77985;DHT22;67177;47.240;-1.546;2023-05-02T10:20:31;16.80;60.30
77985;DHT22;67177;47.240;-1.546;2023-05-02T10:22:59;16.90;60.10
77985;DHT22;67177;47.240;-1.546;2023-05-02T10:25:25;16.90;59.90
77985;DHT22;67177;47.240;-1.546;2023-05-02T10:27:52;16.90;59.40
77985;DHT22;67177;47.240;-1.546;2023-05-02T10:30:18;17.00;59.00
77985;DHT22;67177;47.240;-1.546;2023-05-02T10:32:47;17.10;59.20
77985;DHT22;67177;47.240;-1.546;2023-05-02T10:35:15;17.10;59.50
77985;DHT22;67177;47.240;-1.546;2023-05-02T10:37:41;17.00;59.50
77985;DHT22;67177;47.240;-1.546;2023-05-02T10:40:10;17.00;59.50
77985;DHT22;67177;47.240;-1.546;2023-05-02T10:42:38;17.00;59.70
77985;DHT22;67177;47.240;-1.546;2023-05-02T10:45:28;17.00;59.20
77985;DHT22;67177;47.240;-1.546;2023-05-02T10:48:14;17.00;59.10
77985;DHT22;67177;47.240;-1.546;2023-05-02T10:50:48;17.00;58.70
77985;DHT22;67177;47.240;-1.546;2023-05-02T10:53:33;17.10;58.80
77985;DHT22;67177;47.240;-1.546;2023-05-02T10:58:50;17.10;58.50
77985;DHT22;67177;47.240;-1.546;2023-05-02T11:06:24;17.60;58.50
77985;DHT22;67177;47.240;-1.546;2023-05-02T11:08:50;17.60;58.70
77985;DHT22;67177;47.240;-1.546;2023-05-02T11:11:39;17.40;58.90
77985;DHT22;67177;47.240;-1.546;2023-05-02T11:14:09;17.30;58.80
77985;DHT22;67177;47.240;-1.546;2023-05-02T11:24:52;17.60;57.00
77985;DHT22;67177;47.240;-1.546;2023-05-02T11:30:05;17.60;57.40
77985;DHT22;67177;47.240;-1.546;2023-05-02T11:35:21;17.90;57.30
77985;DHT22;67177;47.240;-1.546;2023-05-02T11:37:53;18.10;56.60
77985;DHT22;67177;47.240;-1.546;2023-05-02T11:40:19;18.10;56.10
77985;DHT22;67177;47.240;-1.546;2023-05-02T11:42:45;18.10;56.00
77985;DHT22;67177;47.240;-1.546;2023-05-02T11:45:11;18.20;55.20
77985;DHT22;67177;47.240;-1.546;2023-05-02T11:47:37;18.40;55.10
77985;DHT22;67177;47.240;-1.546;2023-05-02T11:50:06;18.60;55.00
77985;DHT22;67177;47.240;-1.546;2023-05-02T11:52:39;18.60;55.20
77985;DHT22;67177;47.240;-1.546;2023-05-02T11:55:06;18.60;55.40
77985;DHT22;67177;47.240;-1.546;2023-05-02T11:57:34;18.80;54.70
77985;DHT22;67177;47.240;-1.546;2023-05-02T11:59:59;18.90;54.70
77985;DHT22;67177;47.240;-1.546;2023-05-02T12:05:06;18.90;53.90
77985;DHT22;67177;47.240;-1.546;2023-05-02T12:10:05;18.70;54.30
77985;DHT22;67177;47.240;-1.546;2023-05-02T12:12:31;18.60;54.30
77985;DHT22;67177;47.240;-1.546;2023-05-02T12:14:57;18.50;53.90
77985;DHT22;67177;47.240;-1.546;2023-05-02T12:17:23;18.50;53.80
77985;DHT22;67177;47.240;-1.546;2023-05-02T12:19:50;18.50;53.30
77985;DHT22;67177;47.240;-1.546;2023-05-02T12:22:16;18.40;53.40
77985;DHT22;67177;47.240;-1.546;2023-05-02T12:24:42;18.20;53.50
77985;DHT22;67177;47.240;-1.546;2023-05-02T12:27:10;18.30;53.20
77985;DHT22;67177;47.240;-1.546;2023-05-02T12:29:43;18.40;53.20
77985;DHT22;67177;47.240;-1.546;2023-05-02T12:32:10;18.50;53.40
77985;DHT22;67177;47.240;-1.546;2023-05-02T12:34:37;18.50;53.60
77985;DHT22;67177;47.240;-1.546;2023-05-02T12:37:03;18.70;53.70
77985;DHT22;67177;47.240;-1.546;2023-05-02T12:39:40;18.70;53.40
77985;DHT22;67177;47.240;-1.546;2023-05-02T12:42:13;18.90;53.40
77985;DHT22;67177;47.240;-1.546;2023-05-02T12:44:41;19.20;52.90
77985;DHT22;67177;47.240;-1.546;2023-05-02T12:47:08;19.40;52.30
77985;DHT22;67177;47.240;-1.546;2023-05-02T12:49:54;19.40;52.60
77985;DHT22;67177;47.240;-1.546;2023-05-02T12:52:47;19.50;52.30
77985;DHT22;67177;47.240;-1.546;2023-05-02T12:55:17;19.90;51.90
77985;DHT22;67177;47.240;-1.546;2023-05-02T12:57:43;20.10;51.80
77985;DHT22;67177;47.240;-1.546;2023-05-02T13:00:09;20.30;51.00
77985;DHT22;67177;47.240;-1.546;2023-05-02T13:02:35;20.30;51.40
77985;DHT22;67177;47.240;-1.546;2023-05-02T13:05:01;20.10;51.50
77985;DHT22;67177;47.240;-1.546;2023-05-02T13:07:26;20.00;51.30
77985;DHT22;67177;47.240;-1.546;2023-05-02T13:09:52;19.70;50.50
77985;DHT22;67177;47.240;-1.546;2023-05-02T13:12:17;19.50;50.80
77985;DHT22;67177;47.240;-1.546;2023-05-02T13:14:43;19.40;51.00
77985;DHT22;67177;47.240;-1.546;2023-05-02T13:17:09;19.40;50.70
77985;DHT22;67177;47.240;-1.546;2023-05-02T13:19:35;19.40;50.90
77985;DHT22;67177;47.240;-1.546;2023-05-02T13:22:00;19.50;50.50
77985;DHT22;67177;47.240;-1.546;2023-05-02T13:24:26;19.80;50.50
77985;DHT22;67177;47.240;-1.546;2023-05-02T13:26:52;19.90;50.40
77985;DHT22;67177;47.240;-1.546;2023-05-02T13:29:17;19.80;50.40
77985;DHT22;67177;47.240;-1.546;2023-05-02T13:31:43;19.60;50.80
77985;DHT22;67177;47.240;-1.546;2023-05-02T13:34:09;19.60;50.90
77985;DHT22;67177;47.240;-1.546;2023-05-02T13:36:35;19.50;51.00
77985;DHT22;67177;47.240;-1.546;2023-05-02T13:39:05;19.50;50.60
77985;DHT22;67177;47.240;-1.546;2023-05-02T13:41:30;19.50;50.70
77985;DHT22;67177;47.240;-1.546;2023-05-02T13:43:56;19.70;50.30
77985;DHT22;67177;47.240;-1.546;2023-05-02T13:46:22;19.90;50.20
77985;DHT22;67177;47.240;-1.546;2023-05-02T13:48:47;19.90;50.40
77985;DHT22;67177;47.240;-1.546;2023-05-02T13:51:13;19.70;50.50
77985;DHT22;67177;47.240;-1.546;2023-05-02T13:53:39;19.70;50.10
77985;DHT22;67177;47.240;-1.546;2023-05-02T13:56:04;19.80;50.20
77985;DHT22;67177;47.240;-1.546;2023-05-02T13:58:30;20.00;50.10
77985;DHT22;67177;47.240;-1.546;2023-05-02T14:00:56;20.10;49.90
77985;DHT22;67177;47.240;-1.546;2023-05-02T14:03:22;20.20;49.90
77985;DHT22;67177;47.240;-1.546;2023-05-02T14:05:47;20.10;50.00
77985;DHT22;67177;47.240;-1.546;2023-05-02T14:08:13;20.00;50.60
77985;DHT22;67177;47.240;-1.546;2023-05-02T14:10:43;19.80;50.70
77985;DHT22;67177;47.240;-1.546;2023-05-02T14:13:08;19.80;50.60
77985;DHT22;67177;47.240;-1.546;2023-05-02T14:15:34;19.80;50.60
77985;DHT22;67177;47.240;-1.546;2023-05-02T14:18:02;19.70;50.60
77985;DHT22;67177;47.240;-1.546;2023-05-02T14:20:27;19.60;51.00
77985;DHT22;67177;47.240;-1.546;2023-05-02T14:22:53;19.70;51.10
77985;DHT22;67177;47.240;-1.546;2023-05-02T14:25:19;19.70;51.20
77985;DHT22;67177;47.240;-1.546;2023-05-02T14:27:45;19.70;50.90
77985;DHT22;67177;47.240;-1.546;2023-05-02T14:30:11;20.00;50.60
77985;DHT22;67177;47.240;-1.546;2023-05-02T14:32:37;20.30;50.20
77985;DHT22;67177;47.240;-1.546;2023-05-02T14:35:03;20.50;50.20
77985;DHT22;67177;47.240;-1.546;2023-05-02T14:37:29;20.80;50.10
77985;DHT22;67177;47.240;-1.546;2023-05-02T14:39:55;20.80;50.00
77985;DHT22;67177;47.240;-1.546;2023-05-02T14:42:21;20.70;50.10
77985;DHT22;67177;47.240;-1.546;2023-05-02T14:44:47;20.40;50.00
77985;DHT22;67177;47.240;-1.546;2023-05-02T14:47:13;20.20;49.50
77985;DHT22;67177;47.240;-1.546;2023-05-02T14:49:38;20.10;49.50
77985;DHT22;67177;47.240;-1.546;2023-05-02T14:52:04;20.00;49.60
77985;DHT22;67177;47.240;-1.546;2023-05-02T14:54:30;20.10;49.30
77985;DHT22;67177;47.240;-1.546;2023-05-02T14:56:56;20.40;49.00
77985;DHT22;67177;47.240;-1.546;2023-05-02T14:59:22;20.60;48.70
77985;DHT22;67177;47.240;-1.546;2023-05-02T15:01:48;20.60;48.90
77985;DHT22;67177;47.240;-1.546;2023-05-02T15:04:15;20.40;49.10
77985;DHT22;67177;47.240;-1.546;2023-05-02T15:06:42;20.20;49.00
77985;DHT22;67177;47.240;-1.546;2023-05-02T15:09:08;20.20;49.00
77985;DHT22;67177;47.240;-1.546;2023-05-02T15:11:34;20.20;48.90
77985;DHT22;67177;47.240;-1.546;2023-05-02T15:13:59;20.30;48.80
77985;DHT22;67177;47.240;-1.546;2023-05-02T15:16:25;20.40;48.30
77985;DHT22;67177;47.240;-1.546;2023-05-02T15:18:51;20.40;48.50
77985;DHT22;67177;47.240;-1.546;2023-05-02T15:21:16;20.30;48.40
77985;DHT22;67177;47.240;-1.546;2023-05-02T15:23:42;20.30;48.40
77985;DHT22;67177;47.240;-1.546;2023-05-02T15:26:08;20.20;48.50
77985;DHT22;67177;47.240;-1.546;2023-05-02T15:28:34;20.10;48.50
77985;DHT22;67177;47.240;-1.546;2023-05-02T15:30:59;19.90;49.00
77985;DHT22;67177;47.240;-1.546;2023-05-02T15:33:25;19.80;48.80
77985;DHT22;67177;47.240;-1.546;2023-05-02T15:35:55;19.80;48.80
77985;DHT22;67177;47.240;-1.546;2023-05-02T15:38:22;19.90;48.50
77985;DHT22;67177;47.240;-1.546;2023-05-02T15:40:58;20.00;48.40
77985;DHT22;67177;47.240;-1.546;2023-05-02T15:43:25;20.10;48.40
77985;DHT22;67177;47.240;-1.546;2023-05-02T15:45:58;20.10;48.40
77985;DHT22;67177;47.240;-1.546;2023-05-02T15:48:27;20.20;48.60
77985;DHT22;67177;47.240;-1.546;2023-05-02T15:50:53;20.10;48.50
77985;DHT22;67177;47.240;-1.546;2023-05-02T15:53:19;20.10;48.40
77985;DHT22;67177;47.240;-1.546;2023-05-02T15:55:49;20.20;48.30
77985;DHT22;67177;47.240;-1.546;2023-05-02T15:58:15;20.40;48.00
77985;DHT22;67177;47.240;-1.546;2023-05-02T16:00:42;20.40;47.80
77985;DHT22;67177;47.240;-1.546;2023-05-02T16:03:08;20.30;47.90
77985;DHT22;67177;47.240;-1.546;2023-05-02T16:05:34;20.10;47.90
77985;DHT22;67177;47.240;-1.546;2023-05-02T16:08:00;19.90;48.10
77985;DHT22;67177;47.240;-1.546;2023-05-02T16:10:26;19.90;47.90
77985;DHT22;67177;47.240;-1.546;2023-05-02T16:12:52;19.90;48.00
77985;DHT22;67177;47.240;-1.546;2023-05-02T16:15:19;19.80;48.10
77985;DHT22;67177;47.240;-1.546;2023-05-02T16:17:44;19.80;48.20
77985;DHT22;67177;47.240;-1.546;2023-05-02T16:20:10;19.80;48.20
77985;DHT22;67177;47.240;-1.546;2023-05-02T16:22:36;19.80;48.40
77985;DHT22;67177;47.240;-1.546;2023-05-02T16:25:02;19.90;48.10
77985;DHT22;67177;47.240;-1.546;2023-05-02T16:27:28;20.00;48.20
77985;DHT22;67177;47.240;-1.546;2023-05-02T16:29:54;20.10;48.20
77985;DHT22;67177;47.240;-1.546;2023-05-02T16:32:19;20.20;48.10
77985;DHT22;67177;47.240;-1.546;2023-05-02T16:34:47;20.10;48.20
77985;DHT22;67177;47.240;-1.546;2023-05-02T16:37:13;20.00;48.30
77985;DHT22;67177;47.240;-1.546;2023-05-02T16:39:38;19.90;48.50
77985;DHT22;67177;47.240;-1.546;2023-05-02T16:42:04;19.80;48.20
77985;DHT22;67177;47.240;-1.546;2023-05-02T16:44:30;19.70;48.10
77985;DHT22;67177;47.240;-1.546;2023-05-02T16:46:55;19.70;48.00
77985;DHT22;67177;47.240;-1.546;2023-05-02T16:49:22;19.60;48.00
77985;DHT22;67177;47.240;-1.546;2023-05-02T16:51:47;19.70;48.00
77985;DHT22;67177;47.240;-1.546;2023-05-02T16:54:16;19.60;48.10
77985;DHT22;67177;47.240;-1.546;2023-05-02T16:56:42;19.60;48.30
77985;DHT22;67177;47.240;-1.546;2023-05-02T16:59:08;19.60;48.40
77985;DHT22;67177;47.240;-1.546;2023-05-02T17:01:34;19.60;48.40
77985;DHT22;67177;47.240;-1.546;2023-05-02T17:03:59;19.60;48.70
77985;DHT22;67177;47.240;-1.546;2023-05-02T17:06:25;19.50;48.80
77985;DHT22;67177;47.240;-1.546;2023-05-02T17:08:51;19.50;48.40
77985;DHT22;67177;47.240;-1.546;2023-05-02T17:11:17;19.50;48.40
77985;DHT22;67177;47.240;-1.546;2023-05-02T17:13:42;19.40;48.40
77985;DHT22;67177;47.240;-1.546;2023-05-02T17:16:08;19.40;48.30
77985;DHT22;67177;47.240;-1.546;2023-05-02T17:18:34;19.40;48.40
77985;DHT22;67177;47.240;-1.546;2023-05-02T17:21:00;19.40;47.90
77985;DHT22;67177;47.240;-1.546;2023-05-02T17:23:27;19.40;48.00
77985;DHT22;67177;47.240;-1.546;2023-05-02T17:25:54;19.40;48.10
77985;DHT22;67177;47.240;-1.546;2023-05-02T17:28:20;19.40;48.10
77985;DHT22;67177;47.240;-1.546;2023-05-02T17:30:46;19.40;48.10
77985;DHT22;67177;47.240;-1.546;2023-05-02T17:33:12;19.40;48.10
77985;DHT22;67177;47.240;-1.546;2023-05-02T17:35:38;19.30;48.30
77985;DHT22;67177;47.240;-1.546;2023-05-02T17:38:04;19.30;48.40
77985;DHT22;67177;47.240;-1.546;2023-05-02T17:40:29;19.30;48.40
77985;DHT22;67177;47.240;-1.546;2023-05-02T17:42:55;19.20;48.40
77985;DHT22;67177;47.240;-1.546;2023-05-02T17:45:23;19.20;48.50
77985;DHT22;67177;47.240;-1.546;2023-05-02T17:47:48;19.20;48.60
77985;DHT22;67177;47.240;-1.546;2023-05-02T17:50:14;19.10;48.60
77985;DHT22;67177;47.240;-1.546;2023-05-02T17:52:40;19.10;48.70
77985;DHT22;67177;47.240;-1.546;2023-05-02T17:55:06;19.10;48.70
77985;DHT22;67177;47.240;-1.546;2023-05-02T17:57:33;19.10;48.50
77985;DHT22;67177;47.240;-1.546;2023-05-02T17:59:58;19.00;48.60
77985;DHT22;67177;47.240;-1.546;2023-05-02T18:02:25;19.00;48.60
77985;DHT22;67177;47.240;-1.546;2023-05-02T18:04:51;18.90;48.60
77985;DHT22;67177;47.240;-1.546;2023-05-02T18:07:17;18.90;48.70
77985;DHT22;67177;47.240;-1.546;2023-05-02T18:09:51;18.80;48.80
77985;DHT22;67177;47.240;-1.546;2023-05-02T18:12:17;18.80;48.80
77985;DHT22;67177;47.240;-1.546;2023-05-02T18:14:43;18.80;48.90
77985;DHT22;67177;47.240;-1.546;2023-05-02T18:17:09;18.70;49.00
77985;DHT22;67177;47.240;-1.546;2023-05-02T18:19:35;18.70;49.20
77985;DHT22;67177;47.240;-1.546;2023-05-02T18:22:01;18.60;49.20
77985;DHT22;67177;47.240;-1.546;2023-05-02T18:24:26;18.60;49.20
77985;DHT22;67177;47.240;-1.546;2023-05-02T18:26:52;18.60;49.30
77985;DHT22;67177;47.240;-1.546;2023-05-02T18:29:18;18.50;49.30
77985;DHT22;67177;47.240;-1.546;2023-05-02T18:31:43;18.50;49.30
77985;DHT22;67177;47.240;-1.546;2023-05-02T18:34:14;18.50;49.40
77985;DHT22;67177;47.240;-1.546;2023-05-02T18:36:40;18.40;49.50
77985;DHT22;67177;47.240;-1.546;2023-05-02T18:39:06;18.40;49.60
77985;DHT22;67177;47.240;-1.546;2023-05-02T18:41:31;18.30;49.70
77985;DHT22;67177;47.240;-1.546;2023-05-02T18:43:58;18.20;49.90
77985;DHT22;67177;47.240;-1.546;2023-05-02T18:46:24;18.20;49.90
77985;DHT22;67177;47.240;-1.546;2023-05-02T18:48:49;18.10;50.00
77985;DHT22;67177;47.240;-1.546;2023-05-02T18:51:15;18.10;50.10
77985;DHT22;67177;47.240;-1.546;2023-05-02T18:53:41;18.00;50.10
77985;DHT22;67177;47.240;-1.546;2023-05-02T18:56:13;18.00;50.20
77985;DHT22;67177;47.240;-1.546;2023-05-02T18:58:39;18.00;50.20
77985;DHT22;67177;47.240;-1.546;2023-05-02T19:01:14;18.00;50.20
77985;DHT22;67177;47.240;-1.546;2023-05-02T19:03:41;17.90;50.30
77985;DHT22;67177;47.240;-1.546;2023-05-02T19:06:08;17.90;50.30
77985;DHT22;67177;47.240;-1.546;2023-05-02T19:08:34;17.80;50.40
77985;DHT22;67177;47.240;-1.546;2023-05-02T19:10:59;17.70;50.50
77985;DHT22;67177;47.240;-1.546;2023-05-02T19:13:25;17.70;50.70
77985;DHT22;67177;47.240;-1.546;2023-05-02T19:15:52;17.60;50.80
77985;DHT22;67177;47.240;-1.546;2023-05-02T19:18:18;17.60;50.90
77985;DHT22;67177;47.240;-1.546;2023-05-02T19:20:48;17.50;51.10
77985;DHT22;67177;47.240;-1.546;2023-05-02T19:23:13;17.50;51.20
77985;DHT22;67177;47.240;-1.546;2023-05-02T19:25:40;17.40;51.40
77985;DHT22;67177;47.240;-1.546;2023-05-02T19:28:06;17.40;51.40
77985;DHT22;67177;47.240;-1.546;2023-05-02T19:30:32;17.30;51.50
77985;DHT22;67177;47.240;-1.546;2023-05-02T19:32:58;17.30;51.80
77985;DHT22;67177;47.240;-1.546;2023-05-02T19:35:24;17.30;52.00
77985;DHT22;67177;47.240;-1.546;2023-05-02T19:37:50;17.20;52.00
77985;DHT22;67177;47.240;-1.546;2023-05-02T19:40:16;17.20;52.00
77985;DHT22;67177;47.240;-1.546;2023-05-02T19:42:42;17.20;52.30
77985;DHT22;67177;47.240;-1.546;2023-05-02T19:45:08;17.20;52.30
77985;DHT22;67177;47.240;-1.546;2023-05-02T19:47:34;17.10;52.30
77985;DHT22;67177;47.240;-1.546;2023-05-02T19:50:02;17.10;52.50
77985;DHT22;67177;47.240;-1.546;2023-05-02T19:52:28;17.10;52.60
77985;DHT22;67177;47.240;-1.546;2023-05-02T19:54:53;17.00;52.70
77985;DHT22;67177;47.240;-1.546;2023-05-02T19:57:19;17.00;52.70
77985;DHT22;67177;47.240;-1.546;2023-05-02T19:59:45;17.00;52.90
77985;DHT22;67177;47.240;-1.546;2023-05-02T20:02:10;17.00;53.00
77985;DHT22;67177;47.240;-1.546;2023-05-02T20:04:36;16.90;53.10
77985;DHT22;67177;47.240;-1.546;2023-05-02T20:07:02;16.90;53.10
77985;DHT22;67177;47.240;-1.546;2023-05-02T20:09:27;16.90;53.20
77985;DHT22;67177;47.240;-1.546;2023-05-02T20:11:54;16.90;53.20
77985;DHT22;67177;47.240;-1.546;2023-05-02T20:14:20;16.80;53.30
77985;DHT22;67177;47.240;-1.546;2023-05-02T20:16:46;16.80;53.40
77985;DHT22;67177;47.240;-1.546;2023-05-02T20:19:12;16.70;53.50
77985;DHT22;67177;47.240;-1.546;2023-05-02T20:21:37;16.70;53.60
77985;DHT22;67177;47.240;-1.546;2023-05-02T20:24:05;16.70;53.60
77985;DHT22;67177;47.240;-1.546;2023-05-02T20:26:30;16.60;53.70
77985;DHT22;67177;47.240;-1.546;2023-05-02T20:28:58;16.60;53.80
77985;DHT22;67177;47.240;-1.546;2023-05-02T20:31:24;16.60;53.90
77985;DHT22;67177;47.240;-1.546;2023-05-02T20:33:50;16.50;54.00
77985;DHT22;67177;47.240;-1.546;2023-05-02T20:36:16;16.50;54.10
77985;DHT22;67177;47.240;-1.546;2023-05-02T20:38:45;16.50;54.10
77985;DHT22;67177;47.240;-1.546;2023-05-02T20:41:12;16.40;54.30
77985;DHT22;67177;47.240;-1.546;2023-05-02T20:43:41;16.40;54.40
77985;DHT22;67177;47.240;-1.546;2023-05-02T20:46:12;16.40;54.50
77985;DHT22;67177;47.240;-1.546;2023-05-02T20:48:38;16.40;54.60
77985;DHT22;67177;47.240;-1.546;2023-05-02T20:51:03;16.30;54.60
77985;DHT22;67177;47.240;-1.546;2023-05-02T20:53:29;16.30;54.70
77985;DHT22;67177;47.240;-1.546;2023-05-02T20:55:55;16.30;54.70
77985;DHT22;67177;47.240;-1.546;2023-05-02T20:58:20;16.30;54.80
77985;DHT22;67177;47.240;-1.546;2023-05-02T21:00:46;16.30;54.90
77985;DHT22;67177;47.240;-1.546;2023-05-02T21:03:17;16.20;54.90